Time;durP1;ratioP1;P1;durP2;ratioP2;P2;SDS_P1;SDS_P2;PMS_P1;PMS_P2;Temp;Humidity;BMP_temperature;BMP_pressure;BME280_temperature;BME280_humidity;BME280_pressure;Samples;Min_cycle;Max_cycle;Signal;HPM_P1;HPM_P2
2021/09/23 00:00:21;;;;;;;17.38;11.95;;;;;;;;;;5053261;28;20041;-77
2021/09/23 00:02:48;;;;;;;21.88;12.43;;;;;;;;;;5053687;28;20078;-77
2021/09/23 00:05:19;;;;;;;19.48;11.15;;;;;;;;;;5053374;28;20041;-77
2021/09/23 00:07:46;;;;;;;13.15;10.95;;;;;;;;;;5053431;28;20486;-77
2021/09/23 00:10:19;;;;;;;15.90;11.88;;;;;;;;;;5051098;28;20104;-77
2021/09/23 00:12:44;;;;;;;13.13;11.55;;;;;;;;;;5053262;28;20068;-77
2021/09/23 00:15:11;;;;;;;27.38;12.65;;;;;;;;;;5051927;28;20072;-76
2021/09/23 00:17:37;;;;;;;15.02;11.88;;;;;;;;;;5053204;28;20048;-77
2021/09/23 00:20:04;;;;;;;20.63;12.25;;;;;;;;;;5053139;28;20085;-77
2021/09/23 00:22:29;;;;;;;45.70;12.02;;;;;;;;;;5053349;28;20487;-77
2021/09/23 00:24:54;;;;;;;17.15;12.02;;;;;;;;;;5053327;28;20037;-77
2021/09/23 00:27:20;;;;;;;35.88;11.82;;;;;;;;;;5053249;28;20041;-77
2021/09/23 00:29:45;;;;;;;40.97;12.88;;;;;;;;;;5053107;28;20071;-78
2021/09/23 00:32:11;;;;;;;28.23;12.10;;;;;;;;;;5053390;28;20112;-78
2021/09/23 00:34:36;;;;;;;38.75;13.02;;;;;;;;;;5052946;28;20517;-78
2021/09/23 00:37:02;;;;;;;12.88;10.80;;;;;;;;;;5070245;28;20040;-77
2021/09/23 00:39:27;;;;;;;47.22;11.93;;;;;;;;;;5073017;28;20029;-77
2021/09/23 00:41:53;;;;;;;44.75;12.45;;;;;;;;;;5073045;28;20041;-78
2021/09/23 00:44:22;;;;;;;24.15;11.82;;;;;;;;;;5073118;28;20486;-79
2021/09/23 00:46:51;;;;;;;87.70;14.00;;;;;;;;;;5072967;28;20127;-77
2021/09/23 00:49:20;;;;;;;18.15;12.75;;;;;;;;;;5068167;28;20032;-77
2021/09/23 00:51:46;;;;;;;14.23;11.65;;;;;;;;;;5051765;28;20120;-77
2021/09/23 00:54:13;;;;;;;24.95;11.98;;;;;;;;;;5051954;28;20426;-77
2021/09/23 00:56:39;;;;;;;25.63;13.40;;;;;;;;;;5057222;28;20039;-77
2021/09/23 00:59:05;;;;;;;27.98;13.68;;;;;;;;;;5056134;28;20037;-77
2021/09/23 01:01:32;;;;;;;12.90;10.82;;;;;;;;;;5056401;28;20052;-77
2021/09/23 01:04:00;;;;;;;14.75;12.48;;;;;;;;;;5055748;28;20029;-78
2021/09/23 01:06:27;;;;;;;13.93;11.32;;;;;;;;;;5056229;28;20072;-77
2021/09/23 01:08:54;;;;;;;16.83;12.18;;;;;;;;;;5057239;28;20064;-77
2021/09/23 01:11:19;;;;;;;47.25;11.00;;;;;;;;;;5056686;28;20044;-77
2021/09/23 01:13:45;;;;;;;16.00;9.93;;;;;;;;;;5055734;28;20025;-78
2021/09/23 01:16:15;;;;;;;15.13;10.20;;;;;;;;;;5058117;28;20040;-77
2021/09/23 01:19:13;;;;;;;13.75;10.35;;;;;;;;;;5053028;28;20064;-77
2021/09/23 01:21:39;;;;;;;22.50;11.20;;;;;;;;;;5056481;28;20119;-78
2021/09/23 01:24:06;;;;;;;14.93;11.57;;;;;;;;;;5057210;28;20117;-78
2021/09/23 01:26:32;;;;;;;18.50;12.75;;;;;;;;;;5056907;28;20060;-77
2021/09/23 01:29:08;;;;;;;37.03;11.63;;;;;;;;;;5056135;28;20426;-77
2021/09/23 01:31:39;;;;;;;17.75;12.38;;;;;;;;;;5056374;28;20119;-77
2021/09/23 01:34:05;;;;;;;20.73;12.32;;;;;;;;;;5056167;28;20105;-77
2021/09/23 01:36:30;;;;;;;18.70;11.90;;;;;;;;;;5056762;28;20028;-77
2021/09/23 01:38:56;;;;;;;13.55;11.95;;;;;;;;;;5052101;28;20112;-77
2021/09/23 01:41:21;;;;;;;38.20;11.75;;;;;;;;;;5037969;28;20454;-78
2021/09/23 01:43:51;;;;;;;21.27;12.20;;;;;;;;;;5036301;28;20120;-78
2021/09/23 01:46:16;;;;;;;27.98;12.88;;;;;;;;;;5038069;28;20033;-77
2021/09/23 01:48:56;;;;;;;24.85;12.18;;;;;;;;;;5036099;28;20586;-78
2021/09/23 01:51:21;;;;;;;20.67;12.15;;;;;;;;;;5076810;28;20123;-77
2021/09/23 01:53:47;;;;;;;14.93;11.63;;;;;;;;;;5076515;28;20139;-77
2021/09/23 01:56:12;;;;;;;38.10;13.38;;;;;;;;;;5075359;28;20123;-78
2021/09/23 01:58:38;;;;;;;26.67;12.15;;;;;;;;;;5075803;28;20060;-78
2021/09/23 02:01:05;;;;;;;30.60;11.77;;;;;;;;;;5074589;28;20386;-78
2021/09/23 02:03:31;;;;;;;17.90;12.50;;;;;;;;;;5067452;28;20029;-78
2021/09/23 02:06:19;;;;;;;51.95;13.75;;;;;;;;;;5052671;28;20055;-79
2021/09/23 02:08:45;;;;;;;16.40;12.60;;;;;;;;;;5054742;28;20033;-78
2021/09/23 02:11:11;;;;;;;32.42;13.02;;;;;;;;;;5055552;28;20033;-77
2021/09/23 02:13:47;;;;;;;38.75;11.65;;;;;;;;;;5054673;28;20040;-78
2021/09/23 02:16:12;;;;;;;30.73;11.45;;;;;;;;;;5057213;28;20033;-79
2021/09/23 02:18:38;;;;;;;117.57;14.98;;;;;;;;;;5039703;28;20059;-77
2021/09/23 02:21:05;;;;;;;30.35;14.48;;;;;;;;;;5056065;28;20043;-81
2021/09/23 02:23:32;;;;;;;20.58;13.30;;;;;;;;;;5042433;28;20119;-78
2021/09/23 02:25:57;;;;;;;59.30;12.93;;;;;;;;;;5057252;28;20057;-78
2021/09/23 02:28:23;;;;;;;43.05;13.13;;;;;;;;;;5061983;28;20039;-78
2021/09/23 02:30:48;;;;;;;16.77;12.45;;;;;;;;;;5078745;28;20037;-78
2021/09/23 02:33:14;;;;;;;18.50;13.13;;;;;;;;;;5077157;28;20071;-78
2021/09/23 02:35:39;;;;;;;15.60;12.77;;;;;;;;;;5077622;28;20075;-78
2021/09/23 02:38:05;;;;;;;19.02;11.43;;;;;;;;;;5067807;28;20100;-78
2021/09/23 02:40:30;;;;;;;15.63;12.45;;;;;;;;;;5059573;28;20047;-78
2021/09/23 02:42:56;;;;;;;15.32;12.25;;;;;;;;;;5041158;28;20159;-78
2021/09/23 02:45:21;;;;;;;15.95;11.60;;;;;;;;;;5057414;28;20037;-79
2021/09/23 02:47:47;;;;;;;20.92;12.23;;;;;;;;;;5056538;28;20037;-78
2021/09/23 02:50:12;;;;;;;41.83;11.60;;;;;;;;;;5054127;28;20056;-77
2021/09/23 02:52:38;;;;;;;27.58;12.35;;;;;;;;;;5054405;28;20427;-77
2021/09/23 02:55:04;;;;;;;14.18;11.82;;;;;;;;;;5037097;28;20037;-77
2021/09/23 02:57:30;;;;;;;18.17;11.57;;;;;;;;;;5053627;28;20033;-76
2021/09/23 02:59:55;;;;;;;35.20;12.25;;;;;;;;;;5052709;28;20386;-78
2021/09/23 03:02:21;;;;;;;17.40;11.88;;;;;;;;;;5052506;28;20040;-77
2021/09/23 03:04:46;;;;;;;13.50;11.63;;;;;;;;;;5053180;28;20025;-78
2021/09/23 03:07:12;;;;;;;14.23;12.02;;;;;;;;;;5053417;28;20083;-77
2021/09/23 03:09:37;;;;;;;19.55;12.98;;;;;;;;;;5053475;28;20496;-76
2021/09/23 03:12:03;;;;;;;18.13;12.45;;;;;;;;;;5052519;28;20028;-76
2021/09/23 03:14:29;;;;;;;21.65;12.25;;;;;;;;;;5053150;28;20375;-76
2021/09/23 03:16:54;;;;;;;126.95;13.55;;;;;;;;;;5052387;28;20033;-76
2021/09/23 03:19:20;;;;;;;18.40;12.23;;;;;;;;;;5052771;28;20044;-76
2021/09/23 03:21:45;;;;;;;16.63;13.13;;;;;;;;;;5052725;28;20064;-76
2021/09/23 03:24:11;;;;;;;59.22;14.15;;;;;;;;;;5052065;28;20029;-76
2021/09/23 03:26:38;;;;;;;25.85;13.15;;;;;;;;;;5053098;28;20033;-76
2021/09/23 03:29:09;;;;;;;36.50;12.18;;;;;;;;;;5052858;28;20059;-76
2021/09/23 03:31:35;;;;;;;84.68;12.77;;;;;;;;;;5051832;28;20041;-76
2021/09/23 03:34:02;;;;;;;28.75;14.35;;;;;;;;;;5053883;28;20554;-77
2021/09/23 03:36:27;;;;;;;41.90;14.20;;;;;;;;;;5054084;28;20064;-76
2021/09/23 03:38:55;;;;;;;20.58;13.57;;;;;;;;;;5053969;28;20068;-76
2021/09/23 03:41:22;;;;;;;17.30;12.55;;;;;;;;;;5051894;28;20036;-76
2021/09/23 03:43:49;;;;;;;25.45;13.23;;;;;;;;;;5052625;28;20128;-76
2021/09/23 03:46:14;;;;;;;18.30;12.85;;;;;;;;;;5053003;28;20037;-76
2021/09/23 03:48:40;;;;;;;53.20;13.85;;;;;;;;;;5052820;28;20356;-76
2021/09/23 03:51:06;;;;;;;20.08;13.85;;;;;;;;;;5052282;28;20078;-76
2021/09/23 03:53:31;;;;;;;28.58;14.48;;;;;;;;;;5053536;28;20471;-76
2021/09/23 03:55:56;;;;;;;29.98;15.27;;;;;;;;;;5052337;28;20372;-76
2021/09/23 03:58:22;;;;;;;46.63;15.77;;;;;;;;;;5052240;28;20088;-76
2021/09/23 04:00:48;;;;;;;29.40;17.42;;;;;;;;;;5052233;28;20036;-76
2021/09/23 04:03:13;;;;;;;19.70;15.38;;;;;;;;;;5053365;28;20033;-76
2021/09/23 04:05:38;;;;;;;20.98;14.55;;;;;;;;;;5053592;28;20043;-76
2021/09/23 04:08:04;;;;;;;24.15;13.27;;;;;;;;;;5052232;28;20043;-76
2021/09/23 04:10:30;;;;;;;28.90;14.20;;;;;;;;;;5051222;28;20040;-76
2021/09/23 04:12:56;;;;;;;17.77;14.70;;;;;;;;;;5052091;28;20486;-76
2021/09/23 04:15:25;;;;;;;24.17;14.23;;;;;;;;;;5052073;28;20036;-77
2021/09/23 04:17:53;;;;;;;19.33;14.63;;;;;;;;;;5052182;28;20494;-77
2021/09/23 04:20:18;;;;;;;28.05;15.13;;;;;;;;;;5052020;28;20063;-76
2021/09/23 04:22:52;;;;;;;17.98;14.00;;;;;;;;;;5052255;28;20060;-76
2021/09/23 04:25:18;;;;;;;19.10;15.05;;;;;;;;;;5053247;28;20060;-76
2021/09/23 04:27:43;;;;;;;40.50;15.15;;;;;;;;;;5051822;28;20044;-76
2021/09/23 04:30:09;;;;;;;23.92;13.82;;;;;;;;;;5051414;28;20115;-76
2021/09/23 04:32:35;;;;;;;74.15;14.63;;;;;;;;;;5053108;28;20040;-77
2021/09/23 04:35:00;;;;;;;31.92;14.85;;;;;;;;;;5051633;28;20036;-76
2021/09/23 04:37:26;;;;;;;26.90;15.95;;;;;;;;;;5051827;28;20175;-76
2021/09/23 04:39:51;;;;;;;23.52;14.27;;;;;;;;;;5040176;28;20037;-76
2021/09/23 04:42:17;;;;;;;23.52;15.02;;;;;;;;;;5031979;28;20484;-76
2021/09/23 04:44:42;;;;;;;26.60;13.98;;;;;;;;;;5036342;28;20025;-76
2021/09/23 04:47:08;;;;;;;19.17;14.10;;;;;;;;;;5051833;28;20036;-76
2021/09/23 04:49:35;;;;;;;20.45;14.48;;;;;;;;;;5051754;28;20052;-76
2021/09/23 04:52:02;;;;;;;22.67;14.02;;;;;;;;;;5051807;28;20029;-76
2021/09/23 04:54:28;;;;;;;16.90;13.63;;;;;;;;;;5051555;28;20116;-75
2021/09/23 04:56:54;;;;;;;22.65;13.93;;;;;;;;;;5051494;28;20079;-75
2021/09/23 04:59:19;;;;;;;28.65;13.82;;;;;;;;;;5051636;28;20078;-75
2021/09/23 05:01:45;;;;;;;24.50;14.60;;;;;;;;;;5051793;28;20061;-75
2021/09/23 05:04:10;;;;;;;19.80;13.43;;;;;;;;;;5051752;28;20116;-75
2021/09/23 05:06:37;;;;;;;52.05;13.15;;;;;;;;;;5051521;28;20120;-75
2021/09/23 05:09:03;;;;;;;48.67;13.93;;;;;;;;;;5051571;28;20082;-75
2021/09/23 05:11:32;;;;;;;22.52;13.82;;;;;;;;;;5051625;28;20035;-75
2021/09/23 05:13:57;;;;;;;57.42;13.70;;;;;;;;;;5051910;28;20398;-75
2021/09/23 05:16:22;;;;;;;16.83;12.52;;;;;;;;;;5052838;28;20037;-76
2021/09/23 05:18:48;;;;;;;22.45;15.23;;;;;;;;;;5052842;28;20037;-76
2021/09/23 05:21:13;;;;;;;40.90;14.38;;;;;;;;;;5051457;28;20037;-76
2021/09/23 05:23:39;;;;;;;16.08;12.82;;;;;;;;;;5052821;28;20029;-76
2021/09/23 05:26:05;;;;;;;28.42;14.35;;;;;;;;;;5052803;28;20608;-76
2021/09/23 05:28:31;;;;;;;35.53;13.05;;;;;;;;;;5052725;28;20507;-76
2021/09/23 05:30:57;;;;;;;28.58;12.80;;;;;;;;;;5052619;28;20078;-76
2021/09/23 05:33:22;;;;;;;16.88;12.73;;;;;;;;;;5052596;28;20041;-76
2021/09/23 05:35:48;;;;;;;28.10;12.13;;;;;;;;;;5052488;28;20041;-76
2021/09/23 05:38:14;;;;;;;23.25;12.38;;;;;;;;;;5050384;28;20033;-76
2021/09/23 05:40:39;;;;;;;31.45;12.25;;;;;;;;;;5053308;28;20449;-76
2021/09/23 05:43:05;;;;;;;30.63;13.00;;;;;;;;;;5056152;28;20029;-76
2021/09/23 05:45:31;;;;;;;16.98;11.23;;;;;;;;;;5055453;28;20039;-76
2021/09/23 05:47:56;;;;;;;26.15;11.90;;;;;;;;;;5056300;28;20489;-76
2021/09/23 05:50:22;;;;;;;106.78;12.90;;;;;;;;;;5055209;28;20037;-76
2021/09/23 05:52:48;;;;;;;126.25;13.13;;;;;;;;;;5054230;28;20035;-77
2021/09/23 05:55:13;;;;;;;16.95;11.27;;;;;;;;;;5052487;28;20033;-77
2021/09/23 05:57:39;;;;;;;16.10;11.07;;;;;;;;;;5054207;28;20124;-77
2021/09/23 06:00:07;;;;;;;14.98;10.10;;;;;;;;;;5055523;28;20525;-76
2021/09/23 06:02:39;;;;;;;50.97;11.60;;;;;;;;;;5055775;28;20037;-76
2021/09/23 06:05:05;;;;;;;13.73;10.10;;;;;;;;;;5055840;28;20054;-76
2021/09/23 06:07:31;;;;;;;17.30;12.00;;;;;;;;;;5055353;28;20120;-76
2021/09/23 06:09:56;;;;;;;242.70;14.77;;;;;;;;;;5055165;28;20500;-77
2021/09/23 06:12:22;;;;;;;53.50;12.52;;;;;;;;;;5054017;28;20109;-77
2021/09/23 06:14:47;;;;;;;37.00;11.75;;;;;;;;;;5054480;28;20029;-77
2021/09/23 06:17:14;;;;;;;21.15;11.00;;;;;;;;;;5055378;28;20163;-76
2021/09/23 06:19:39;;;;;;;92.10;12.38;;;;;;;;;;5055295;28;20487;-76
2021/09/23 06:22:05;;;;;;;66.35;10.77;;;;;;;;;;5055517;28;20044;-76
2021/09/23 06:24:30;;;;;;;14.40;11.20;;;;;;;;;;5055236;28;20118;-77
2021/09/23 06:26:56;;;;;;;49.95;12.57;;;;;;;;;;5054024;28;20438;-76
2021/09/23 06:29:21;;;;;;;17.40;11.00;;;;;;;;;;5055498;28;20144;-76
2021/09/23 06:31:47;;;;;;;26.63;12.27;;;;;;;;;;5055116;28;20048;-76
2021/09/23 06:34:13;;;;;;;14.77;11.00;;;;;;;;;;5053730;28;20517;-76
2021/09/23 06:36:38;;;;;;;14.95;10.30;;;;;;;;;;5053787;28;20052;-76
2021/09/23 06:39:04;;;;;;;34.00;11.75;;;;;;;;;;5054573;28;20044;-76
2021/09/23 06:41:30;;;;;;;15.85;11.00;;;;;;;;;;5055181;28;20412;-77
2021/09/23 06:43:56;;;;;;;13.57;11.98;;;;;;;;;;5054037;28;20066;-77
2021/09/23 06:46:22;;;;;;;14.90;10.07;;;;;;;;;;5036938;28;20067;-77
2021/09/23 06:48:49;;;;;;;13.20;10.23;;;;;;;;;;5059773;28;20033;-79
2021/09/23 06:51:15;;;;;;;23.70;10.45;;;;;;;;;;5061702;28;20055;-78
2021/09/23 06:53:41;;;;;;;67.93;12.57;;;;;;;;;;5060248;28;20416;-78
2021/09/23 06:56:06;;;;;;;13.40;11.00;;;;;;;;;;5060074;28;20031;-78
2021/09/23 06:58:32;;;;;;;16.30;11.18;;;;;;;;;;5056783;28;20072;-77
2021/09/23 07:01:16;;;;;;;12.25;10.57;;;;;;;;;;5058041;28;20094;-82
2021/09/23 07:03:50;;;;;;;40.92;11.20;;;;;;;;;;5061094;28;20570;-76
2021/09/23 07:06:42;;;;;;;19.40;10.45;;;;;;;;;;5047664;28;20033;-80
2021/09/23 07:09:16;;;;;;;12.27;10.13;;;;;;;;;;5055048;28;20059;-79
2021/09/23 07:11:41;;;;;;;23.85;11.77;;;;;;;;;;5069475;28;20036;-78
2021/09/23 07:14:07;;;;;;;13.52;11.07;;;;;;;;;;5076952;28;20040;-78
2021/09/23 07:16:32;;;;;;;12.45;10.25;;;;;;;;;;5075974;28;20048;-76
2021/09/23 07:18:57;;;;;;;16.85;10.65;;;;;;;;;;5077323;28;20043;-80
2021/09/23 07:21:23;;;;;;;50.45;11.15;;;;;;;;;;5076931;28;20040;-79
2021/09/23 07:23:48;;;;;;;11.55;10.20;;;;;;;;;;5076230;28;20035;-78
2021/09/23 07:26:16;;;;;;;12.55;9.80;;;;;;;;;;5077986;28;20090;-78
2021/09/23 07:28:42;;;;;;;11.27;8.57;;;;;;;;;;5075402;28;20552;-79
2021/09/23 07:31:07;;;;;;;18.48;9.93;;;;;;;;;;5073461;28;20028;-76
2021/09/23 07:33:33;;;;;;;16.67;8.93;;;;;;;;;;5073697;28;20139;-80
2021/09/23 07:35:58;;;;;;;18.23;9.77;;;;;;;;;;5075829;28;20036;-77
2021/09/23 07:38:24;;;;;;;65.35;10.82;;;;;;;;;;5069775;28;20098;-78
2021/09/23 07:40:49;;;;;;;10.30;8.95;;;;;;;;;;5053506;28;20033;-77
2021/09/23 07:43:15;;;;;;;15.80;9.15;;;;;;;;;;5053992;28;20037;-77
2021/09/23 07:45:40;;;;;;;19.77;10.27;;;;;;;;;;5053197;28;20068;-76
2021/09/23 07:48:06;;;;;;;33.58;11.00;;;;;;;;;;5053542;28;20033;-77
2021/09/23 07:50:32;;;;;;;13.30;11.05;;;;;;;;;;5054471;28;20037;-77
2021/09/23 07:52:57;;;;;;;15.00;10.77;;;;;;;;;;5052468;28;20490;-78
2021/09/23 07:55:23;;;;;;;13.13;10.07;;;;;;;;;;5054503;28;20483;-77
2021/09/23 07:57:49;;;;;;;10.57;9.10;;;;;;;;;;5053016;28;20110;-77
2021/09/23 08:00:15;;;;;;;15.32;8.63;;;;;;;;;;5052678;28;20126;-78
2021/09/23 08:02:44;;;;;;;11.30;7.90;;;;;;;;;;5052719;28;20033;-77
2021/09/23 08:05:14;;;;;;;9.27;7.95;;;;;;;;;;5052128;28;20036;-77
2021/09/23 08:07:44;;;;;;;10.15;7.80;;;;;;;;;;5052409;28;20116;-78
2021/09/23 08:10:10;;;;;;;8.88;6.80;;;;;;;;;;5053497;28;20033;-78
2021/09/23 08:12:36;;;;;;;9.80;7.22;;;;;;;;;;5052286;28;20036;-77
2021/09/23 08:15:02;;;;;;;11.75;6.88;;;;;;;;;;5052716;28;20567;-78
2021/09/23 08:17:57;;;;;;;6.97;6.00;;;;;;;;;;5053807;28;20044;-77
2021/09/23 08:20:42;;;;;;;6.88;5.88;;;;;;;;;;5058524;28;20178;-78
2021/09/23 08:23:09;;;;;;;6.13;5.32;;;;;;;;;;5058525;28;20061;-78
2021/09/23 08:25:34;;;;;;;6.82;5.30;;;;;;;;;;5058697;28;20057;-79
2021/09/23 08:28:00;;;;;;;10.13;5.18;;;;;;;;;;5057763;28;20029;-78
2021/09/23 08:30:25;;;;;;;5.65;4.90;;;;;;;;;;5057947;28;20395;-79
2021/09/23 08:32:51;;;;;;;6.47;5.10;;;;;;;;;;5054678;28;20517;-79
2021/09/23 08:35:17;;;;;;;7.18;4.57;;;;;;;;;;5054301;28;20041;-77
2021/09/23 08:37:44;;;;;;;5.60;5.00;;;;;;;;;;5038554;28;20068;-77
2021/09/23 08:40:11;;;;;;;7.43;5.90;;;;;;;;;;5070476;28;20028;-78
2021/09/23 08:42:42;;;;;;;5.28;4.45;;;;;;;;;;5078981;28;20028;-78
2021/09/23 08:45:10;;;;;;;6.18;4.55;;;;;;;;;;5055963;28;20033;-78
2021/09/23 08:47:36;;;;;;;6.13;5.28;;;;;;;;;;5055736;28;20041;-80
2021/09/23 08:50:03;;;;;;;9.00;4.25;;;;;;;;;;5056397;28;20039;-78
2021/09/23 08:52:30;;;;;;;6.25;5.13;;;;;;;;;;5054707;28;20466;-76
2021/09/23 08:54:55;;;;;;;7.50;4.60;;;;;;;;;;5052568;28;20029;-77
2021/09/23 08:57:22;;;;;;;5.50;3.70;;;;;;;;;;5053159;28;20048;-76
2021/09/23 08:59:48;;;;;;;5.78;3.80;;;;;;;;;;5045882;28;20029;-76
2021/09/23 09:02:26;;;;;;;5.28;3.88;;;;;;;;;;5041225;28;20069;-78
2021/09/23 09:05:16;;;;;;;;;;;;;;;;;;5041934;28;20068;-78
2021/09/23 09:08:13;;;;;;;10.18;3.00;;;;;;;;;;5042733;28;20269;-76
2021/09/23 09:10:55;;;;;;;4.07;2.75;;;;;;;;;;5036928;28;20570;-76
2021/09/23 09:13:20;;;;;;;5.75;3.25;;;;;;;;;;5039599;28;20029;-77
2021/09/23 09:15:46;;;;;;;7.70;3.00;;;;;;;;;;5034143;28;20475;-76
2021/09/23 09:18:20;;;;;;;5.95;2.92;;;;;;;;;;5049762;28;20043;-76
2021/09/23 09:20:57;;;;;;;8.25;4.50;;;;;;;;;;5046417;28;20497;-76
2021/09/23 09:23:26;;;;;;;4.10;2.88;;;;;;;;;;5042645;28;20021;-77
2021/09/23 09:25:52;;;;;;;4.68;2.80;;;;;;;;;;5045763;28;20394;-77
2021/09/23 09:28:20;;;;;;;5.03;2.90;;;;;;;;;;5038620;28;20487;-76
2021/09/23 09:30:54;;;;;;;4.18;2.67;;;;;;;;;;5046643;28;20033;-77
2021/09/23 09:33:20;;;;;;;4.93;2.28;;;;;;;;;;5054954;28;20075;-78
2021/09/23 09:35:45;;;;;;;2.90;2.30;;;;;;;;;;5056059;28;20033;-76
2021/09/23 09:38:12;;;;;;;6.35;2.47;;;;;;;;;;5060583;28;20036;-77
2021/09/23 09:40:41;;;;;;;7.40;2.33;;;;;;;;;;5074738;28;20115;-77
2021/09/23 09:43:11;;;;;;;3.83;2.00;;;;;;;;;;5074719;28;20367;-77
2021/09/23 09:45:40;;;;;;;3.17;2.55;;;;;;;;;;5075067;28;20029;-77
2021/09/23 09:48:06;;;;;;;6.22;2.25;;;;;;;;;;5063244;28;20344;-76
2021/09/23 09:50:34;;;;;;;6.45;2.10;;;;;;;;;;5054902;28;20033;-76
2021/09/23 09:53:02;;;;;;;8.88;2.22;;;;;;;;;;5054779;28;20040;-77
2021/09/23 09:55:31;;;;;;;7.15;1.90;;;;;;;;;;5054902;28;20041;-76
2021/09/23 09:57:57;;;;;;;3.63;2.05;;;;;;;;;;5054680;28;20035;-76
2021/09/23 10:00:25;;;;;;;4.15;2.10;;;;;;;;;;5055250;28;20040;-76
2021/09/23 10:02:51;;;;;;;5.47;2.03;;;;;;;;;;5044427;28;20052;-77
2021/09/23 10:05:27;;;;;;;4.03;1.95;;;;;;;;;;5035118;28;20064;-76
2021/09/23 10:07:55;;;;;;;7.35;2.65;;;;;;;;;;5035000;28;20487;-76
2021/09/23 10:10:24;;;;;;;4.47;1.80;;;;;;;;;;5035322;28;20491;-77
2021/09/23 10:12:55;;;;;;;17.48;10.77;;;;;;;;;;5035310;28;20049;-76
2021/09/23 10:15:22;;;;;;;4.53;2.38;;;;;;;;;;5035096;28;20053;-76
2021/09/23 10:17:49;;;;;;;5.25;1.77;;;;;;;;;;5034910;28;20036;-76
2021/09/23 10:20:18;;;;;;;2.40;1.60;;;;;;;;;;5052471;28;20036;-76
2021/09/23 10:22:45;;;;;;;2.53;1.85;;;;;;;;;;5055029;28;20033;-76
2021/09/23 10:25:15;;;;;;;6.93;1.90;;;;;;;;;;5055302;28;20025;-76
2021/09/23 10:27:58;;;;;;;8.80;1.90;;;;;;;;;;5055389;28;20094;-76
2021/09/23 10:30:35;;;;;;;5.95;1.98;;;;;;;;;;5056578;28;20033;-77
2021/09/23 10:33:04;;;;;;;11.35;3.03;;;;;;;;;;5054551;28;20037;-77
2021/09/23 10:35:32;;;;;;;6.70;2.20;;;;;;;;;;5055724;28;20483;-77
2021/09/23 10:38:05;;;;;;;5.15;1.58;;;;;;;;;;5055393;28;20060;-77
2021/09/23 10:40:32;;;;;;;5.55;2.42;;;;;;;;;;5035936;28;20034;-77
2021/09/23 10:43:03;;;;;;;5.03;2.03;;;;;;;;;;5035660;28;20029;-79
2021/09/23 10:45:29;;;;;;;5.00;1.52;;;;;;;;;;5047048;28;20031;-79
2021/09/23 10:48:02;;;;;;;3.17;1.90;;;;;;;;;;5058457;28;20140;-82
2021/09/23 10:50:31;;;;;;;4.93;1.73;;;;;;;;;;5056836;28;20044;-77
2021/09/23 10:53:01;;;;;;;5.22;1.98;;;;;;;;;;5055581;28;20449;-82
2021/09/23 10:55:32;;;;;;;3.00;2.00;;;;;;;;;;5054858;28;20037;-77
2021/09/23 10:57:58;;;;;;;4.70;1.88;;;;;;;;;;5053862;28;20025;-77
2021/09/23 11:00:27;;;;;;;6.15;2.03;;;;;;;;;;5053491;28;20102;-77
2021/09/23 11:02:55;;;;;;;4.32;2.00;;;;;;;;;;5053986;28;20435;-77
2021/09/23 11:05:24;;;;;;;4.40;2.15;;;;;;;;;;5038275;28;20039;-76
2021/09/23 11:07:52;;;;;;;4.95;1.73;;;;;;;;;;5052568;28;20036;-77
2021/09/23 11:10:23;;;;;;;7.47;2.40;;;;;;;;;;5054927;28;20451;-80
2021/09/23 11:12:57;;;;;;;7.03;2.17;;;;;;;;;;5054467;28;20029;-76
2021/09/23 11:15:28;;;;;;;4.25;1.83;;;;;;;;;;5053872;28;20032;-76
2021/09/23 11:17:54;;;;;;;5.28;2.00;;;;;;;;;;5053812;28;20043;-77
2021/09/23 11:20:29;;;;;;;5.25;1.48;;;;;;;;;;5053216;28;20383;-77
2021/09/23 11:23:02;;;;;;;4.93;2.00;;;;;;;;;;5053486;28;20053;-77
2021/09/23 11:25:31;;;;;;;4.63;2.00;;;;;;;;;;5053728;28;20128;-77
2021/09/23 11:27:58;;;;;;;1.77;1.40;;;;;;;;;;5053588;28;20100;-77
2021/09/23 11:30:31;;;;;;;3.58;1.63;;;;;;;;;;5053086;28;20075;-76
2021/09/23 11:33:06;;;;;;;3.10;1.67;;;;;;;;;;5053085;28;20044;-76
2021/09/23 11:35:35;;;;;;;4.68;1.33;;;;;;;;;;5053392;28;20586;-76
2021/09/23 11:38:00;;;;;;;2.20;1.48;;;;;;;;;;5052176;28;20033;-76
2021/09/23 11:40:29;;;;;;;3.72;1.55;;;;;;;;;;5052965;28;20040;-76
2021/09/23 11:42:57;;;;;;;8.45;2.05;;;;;;;;;;5053053;28;20472;-76
2021/09/23 11:45:28;;;;;;;2.30;1.70;;;;;;;;;;5053113;28;20159;-77
2021/09/23 11:48:08;;;;;;;1.35;1.25;;;;;;;;;;5053214;28;20029;-77
2021/09/23 11:51:00;;;;;;;3.92;1.50;;;;;;;;;;5052946;28;20037;-77
2021/09/23 11:53:32;;;;;;;1.92;1.30;;;;;;;;;;5052185;28;20109;-77
2021/09/23 11:56:00;;;;;;;2.47;1.48;;;;;;;;;;5052485;28;20025;-77
2021/09/23 11:58:34;;;;;;;5.32;1.40;;;;;;;;;;5052660;28;20044;-78
2021/09/23 12:01:00;;;;;;;2.83;1.42;;;;;;;;;;5052202;28;20379;-75
2021/09/23 12:03:25;;;;;;;2.13;1.40;;;;;;;;;;5052329;28;20035;-75
2021/09/23 12:05:53;;;;;;;3.22;1.75;;;;;;;;;;5052258;28;20117;-75
2021/09/23 12:08:21;;;;;;;7.60;1.63;;;;;;;;;;5052356;28;20490;-75
2021/09/23 12:10:57;;;;;;;5.43;1.35;;;;;;;;;;5051252;28;20028;-76
2021/09/23 12:13:45;;;;;;;5.68;1.48;;;;;;;;;;5051907;28;20040;-75
2021/09/23 12:16:21;;;;;;;9.05;1.67;;;;;;;;;;5051527;28;20387;-75
2021/09/23 12:18:49;;;;;;;4.25;1.70;;;;;;;;;;5035493;28;20039;-75
2021/09/23 12:21:21;;;;;;;3.40;1.35;;;;;;;;;;5052176;28;20513;-75
2021/09/23 12:23:49;;;;;;;5.63;1.30;;;;;;;;;;5052234;28;20033;-76
2021/09/23 12:26:37;;;;;;;2.72;1.30;;;;;;;;;;5051235;28;20037;-75
2021/09/23 12:29:07;;;;;;;3.45;1.48;;;;;;;;;;5035839;28;20435;-75
2021/09/23 12:31:33;;;;;;;13.15;1.65;;;;;;;;;;5052017;28;20039;-75
2021/09/23 12:34:14;;;;;;;4.85;1.55;;;;;;;;;;5051876;28;20041;-76
2021/09/23 12:36:42;;;;;;;8.75;1.85;;;;;;;;;;5052354;28;20047;-76
2021/09/23 12:39:20;;;;;;;7.05;1.85;;;;;;;;;;5051046;28;20032;-75
2021/09/23 12:41:53;;;;;;;9.13;1.77;;;;;;;;;;5051836;28;20056;-75
2021/09/23 12:44:24;;;;;;;3.65;1.70;;;;;;;;;;5053958;28;20029;-77
2021/09/23 12:47:11;;;;;;;2.72;1.50;;;;;;;;;;5052747;28;20098;-76
2021/09/23 12:49:43;;;;;;;4.57;1.67;;;;;;;;;;5052235;28;20044;-76
2021/09/23 12:52:19;;;;;;;10.93;1.63;;;;;;;;;;5041625;28;20029;-76
2021/09/23 12:54:58;;;;;;;4.85;1.35;;;;;;;;;;5035384;28;20029;-77
2021/09/23 12:57:30;;;;;;;3.25;1.45;;;;;;;;;;5046409;28;20507;-76
2021/09/23 13:00:08;;;;;;;9.88;1.40;;;;;;;;;;5056939;28;20477;-76
2021/09/23 13:02:46;;;;;;;3.72;1.58;;;;;;;;;;5054293;28;20067;-77
2021/09/23 13:05:14;;;;;;;4.75;1.63;;;;;;;;;;5056132;28;20029;-76
2021/09/23 13:07:48;;;;;;;2.97;1.67;;;;;;;;;;5055789;28;20033;-76
2021/09/23 13:10:27;;;;;;;9.07;1.80;;;;;;;;;;5054645;28;20029;-76
2021/09/23 13:12:57;;;;;;;5.95;1.60;;;;;;;;;;5055302;28;20355;-75
2021/09/23 13:15:32;;;;;;;15.25;2.35;;;;;;;;;;5054931;28;20025;-75
2021/09/23 13:18:05;;;;;;;4.45;1.63;;;;;;;;;;5055578;28;20040;-75
2021/09/23 13:20:44;;;;;;;5.60;1.85;;;;;;;;;;5055308;28;20043;-75
2021/09/23 13:23:22;;;;;;;3.38;2.10;;;;;;;;;;5035402;28;20033;-75
2021/09/23 13:25:54;;;;;;;17.88;4.78;;;;;;;;;;5036622;28;20029;-75
2021/09/23 13:28:24;;;;;;;2.47;1.58;;;;;;;;;;5035499;28;20076;-75
2021/09/23 13:30:51;;;;;;;2.25;1.40;;;;;;;;;;5035301;28;20491;-75
2021/09/23 13:33:17;;;;;;;33.97;7.03;;;;;;;;;;5035771;28;20055;-76
2021/09/23 13:35:43;;;;;;;31.75;5.95;;;;;;;;;;5044616;28;20037;-75
2021/09/23 13:38:09;;;;;;;8.57;2.78;;;;;;;;;;5055038;28;20025;-75
2021/09/23 13:40:36;;;;;;;4.45;1.70;;;;;;;;;;5054897;28;20132;-75
2021/09/23 13:43:08;;;;;;;6.20;1.48;;;;;;;;;;5055189;28;20494;-76
2021/09/23 13:45:44;;;;;;;11.07;1.63;;;;;;;;;;5055450;28;20033;-75
2021/09/23 13:48:10;;;;;;;4.30;1.90;;;;;;;;;;5055021;28;20128;-76
2021/09/23 13:50:36;;;;;;;7.25;1.92;;;;;;;;;;5053896;28;20033;-75
2021/09/23 13:53:03;;;;;;;6.85;2.10;;;;;;;;;;5054612;28;20043;-76
2021/09/23 13:55:29;;;;;;;5.82;2.15;;;;;;;;;;5054791;28;20059;-76
2021/09/23 13:57:59;;;;;;;4.15;1.80;;;;;;;;;;5038875;28;20037;-76
2021/09/23 14:00:25;;;;;;;9.98;2.88;;;;;;;;;;5054728;28;20037;-76
2021/09/23 14:02:52;;;;;;;9.55;2.00;;;;;;;;;;5053921;28;20036;-76
2021/09/23 14:05:32;;;;;;;4.80;1.90;;;;;;;;;;5054626;28;20033;-76
2021/09/23 14:07:57;;;;;;;5.45;2.08;;;;;;;;;;5054603;28;20060;-75
2021/09/23 14:10:22;;;;;;;2.30;1.63;;;;;;;;;;5055953;28;20067;-75
2021/09/23 14:13:09;;;;;;;6.82;2.05;;;;;;;;;;5054532;28;20024;-76
2021/09/23 14:15:35;;;;;;;10.80;1.80;;;;;;;;;;5054390;28;20571;-75
2021/09/23 14:18:00;;;;;;;6.70;2.15;;;;;;;;;;5054475;28;20036;-75
2021/09/23 14:20:26;;;;;;;6.05;1.98;;;;;;;;;;5054453;28;20029;-75
2021/09/23 14:22:52;;;;;;;5.53;2.20;;;;;;;;;;5054465;28;20032;-75
2021/09/23 14:25:18;;;;;;;5.70;2.35;;;;;;;;;;5053467;28;20136;-75
2021/09/23 14:27:43;;;;;;;10.38;2.17;;;;;;;;;;5055551;28;20033;-76
2021/09/23 14:30:10;;;;;;;5.88;2.40;;;;;;;;;;5054041;28;20060;-75
2021/09/23 14:32:37;;;;;;;10.35;2.35;;;;;;;;;;5054111;28;20383;-76
2021/09/23 14:35:04;;;;;;;4.63;2.25;;;;;;;;;;5055357;28;20033;-75